createdAt,value
2023-10-20T00:02:06.795Z,7.15
2023-10-20T00:04:35.789Z,7.47
2023-10-20T00:07:03.151Z,6.82
2023-10-20T00:09:29.744Z,8.80
2023-10-20T00:11:55.600Z,6.50
2023-10-20T00:14:21.526Z,7.18
2023-10-20T00:16:47.435Z,5.53
2023-10-20T00:19:13.223Z,8.55
2023-10-20T00:21:40.100Z,7.43
2023-10-20T00:24:06.138Z,8.73
2023-10-20T00:26:31.971Z,9.15
2023-10-20T00:28:57.903Z,7.95
2023-10-20T00:31:24.105Z,9.25
2023-10-20T00:33:50.798Z,8.93
2023-10-20T00:36:17.880Z,9.32
2023-10-20T00:38:43.905Z,10.65
2023-10-20T00:41:09.787Z,10.80
2023-10-20T00:43:36.585Z,10.88
2023-10-20T00:46:05.086Z,9.38
2023-10-20T00:48:32.097Z,10.75
2023-10-20T00:51:00.396Z,10.30
2023-10-20T00:53:28.204Z,10.95
2023-10-20T00:55:55.615Z,10.73
2023-10-20T00:58:21.585Z,11.82
2023-10-20T01:00:47.637Z,11.40
2023-10-20T01:03:16.780Z,12.10
2023-10-20T01:05:42.875Z,12.20
2023-10-20T01:08:09.805Z,12.23
2023-10-20T01:10:35.614Z,11.15
2023-10-20T01:13:01.408Z,11.63
2023-10-20T01:15:27.797Z,8.05
2023-10-20T01:17:53.908Z,13.05
2023-10-20T01:20:19.854Z,10.85
2023-10-20T01:22:45.711Z,11.60
2023-10-20T01:25:11.778Z,11.07
2023-10-20T01:27:38.005Z,10.60
2023-10-20T01:30:04.504Z,12.90
2023-10-20T01:32:30.722Z,12.90
2023-10-20T01:35:15.249Z,11.77
2023-10-20T01:37:41.487Z,12.68
2023-10-20T01:40:10.198Z,12.70
2023-10-20T01:42:36.158Z,12.57
2023-10-20T01:45:03.077Z,12.40
2023-10-20T01:47:29.095Z,8.25
2023-10-20T01:49:55.713Z,12.00
2023-10-20T01:52:21.981Z,11.23
2023-10-20T01:54:47.768Z,10.60
2023-10-20T01:57:13.735Z,10.80
2023-10-20T01:59:39.586Z,12.23
2023-10-20T02:02:05.926Z,10.13
2023-10-20T02:04:35.078Z,11.93
2023-10-20T02:07:01.200Z,10.07
2023-10-20T02:09:27.217Z,10.30
2023-10-20T02:11:57.618Z,11.45
2023-10-20T02:14:23.791Z,11.20
2023-10-20T02:16:51.086Z,9.70
2023-10-20T02:19:17.597Z,10.77
2023-10-20T02:21:43.613Z,8.48
2023-10-20T02:24:09.476Z,11.38
2023-10-20T02:26:36.384Z,10.57
2023-10-20T02:29:03.655Z,10.82
2023-10-20T02:31:29.506Z,9.25
2023-10-20T02:33:55.414Z,10.77
2023-10-20T02:36:22.405Z,10.52
2023-10-20T02:38:48.945Z,11.70
2023-10-20T02:41:14.957Z,10.98
2023-10-20T02:43:41.294Z,11.65
2023-10-20T02:46:08.120Z,11.10
2023-10-20T02:48:34.328Z,10.55
2023-10-20T02:51:18.533Z,11.07
2023-10-20T02:53:44.691Z,11.38
2023-10-20T02:56:14.729Z,11.35
2023-10-20T02:58:41.006Z,9.02
2023-10-20T03:01:08.380Z,9.57
2023-10-20T03:03:39.956Z,10.90
2023-10-20T03:06:07.583Z,10.75
2023-10-20T03:08:34.032Z,9.23
2023-10-20T03:10:59.980Z,10.45
2023-10-20T03:13:26.436Z,9.40
2023-10-20T03:15:52.571Z,9.82
2023-10-20T03:18:18.533Z,8.32
2023-10-20T03:20:44.510Z,7.57
2023-10-20T03:23:10.883Z,8.43
2023-10-20T03:25:37.682Z,6.05
2023-10-20T03:28:04.495Z,7.28
2023-10-20T03:30:30.463Z,6.63
2023-10-20T03:33:02.553Z,7.43
2023-10-20T03:35:28.462Z,8.45
2023-10-20T03:37:58.339Z,6.53
2023-10-20T03:40:31.427Z,7.13
2023-10-20T03:43:00.349Z,8.60
2023-10-20T03:45:26.313Z,6.15
2023-10-20T03:47:52.339Z,5.70
2023-10-20T03:50:18.289Z,6.32
2023-10-20T03:52:46.284Z,6.15
2023-10-20T03:55:15.220Z,6.20
2023-10-20T03:57:42.193Z,6.85
2023-10-20T04:00:29.970Z,6.45
2023-10-20T04:02:58.965Z,4.82
2023-10-20T04:05:26.440Z,5.65
2023-10-20T04:07:52.372Z,5.82
2023-10-20T04:10:21.467Z,5.00
2023-10-20T04:12:47.955Z,4.22
2023-10-20T04:15:17.806Z,5.28
2023-10-20T04:17:44.405Z,4.23
2023-10-20T04:20:18.634Z,5.00
2023-10-20T04:22:52.676Z,4.97
2023-10-20T04:25:22.771Z,4.47
2023-10-20T04:27:58.257Z,5.03
2023-10-20T04:30:43.107Z,5.70
2023-10-20T04:33:28.272Z,6.03
2023-10-20T04:36:38.943Z,6.82
2023-10-20T04:39:23.420Z,6.70
2023-10-20T04:42:01.331Z,5.70
2023-10-20T04:44:46.062Z,7.13
2023-10-20T04:47:30.485Z,5.72
2023-10-20T04:50:02.277Z,6.68
2023-10-20T04:52:47.030Z,4.88
2023-10-20T04:55:14.385Z,5.05
2023-10-20T04:57:58.689Z,5.88
2023-10-20T05:00:24.561Z,7.32
2023-10-20T05:02:51.324Z,7.45
2023-10-20T05:05:34.446Z,6.18
2023-10-20T05:08:17.910Z,5.43
2023-10-20T05:10:44.647Z,7.40
2023-10-20T05:13:12.048Z,6.13
2023-10-20T05:15:42.522Z,6.45
2023-10-20T05:18:17.776Z,6.60
2023-10-20T05:20:44.297Z,6.95
2023-10-20T05:23:15.393Z,5.00
2023-10-20T05:25:48.193Z,5.57
2023-10-20T05:28:16.873Z,7.50
2023-10-20T05:30:57.682Z,6.72
2023-10-20T05:34:20.066Z,7.95
2023-10-20T05:36:48.504Z,6.65
2023-10-20T05:39:14.728Z,5.53
2023-10-20T05:41:41.149Z,6.75
2023-10-20T05:44:12.638Z,4.30
2023-10-20T05:46:42.144Z,4.30
2023-10-20T05:49:09.490Z,4.93
2023-10-20T05:51:36.085Z,5.55
2023-10-20T05:56:44.593Z,7.00
2023-10-20T05:59:10.878Z,7.38
2023-10-20T06:01:37.331Z,6.60
2023-10-20T06:04:25.184Z,6.13
2023-10-20T06:06:51.844Z,5.57
2023-10-20T06:09:17.816Z,6.18
2023-10-20T06:11:44.041Z,4.97
2023-10-20T06:14:11.098Z,6.65
2023-10-20T06:16:37.116Z,5.03
2023-10-20T06:19:03.258Z,6.65
2023-10-20T06:21:30.041Z,4.75
2023-10-20T06:23:58.336Z,6.47
2023-10-20T06:26:24.215Z,4.82
2023-10-20T06:28:50.154Z,5.70
2023-10-20T06:31:29.571Z,6.03
2023-10-20T06:34:13.508Z,5.43
2023-10-20T06:36:47.378Z,5.13
2023-10-20T06:39:14.128Z,5.70
2023-10-20T06:41:40.753Z,6.40
2023-10-20T06:44:06.862Z,4.70
2023-10-20T06:46:32.979Z,6.03
2023-10-20T06:48:58.892Z,7.25
2023-10-20T06:51:25.894Z,5.38
2023-10-20T06:53:54.655Z,6.38
2023-10-20T06:56:24.779Z,6.40
2023-10-20T06:58:53.065Z,6.32
2023-10-20T07:01:19.068Z,5.38
2023-10-20T07:03:48.145Z,6.63
2023-10-20T07:06:15.031Z,6.00
2023-10-20T07:08:41.109Z,5.00
2023-10-20T07:11:07.576Z,5.75
2023-10-20T07:13:35.126Z,6.43
2023-10-20T07:16:01.291Z,6.63
2023-10-20T07:18:27.502Z,5.72
2023-10-20T07:20:56.090Z,5.55
2023-10-20T07:23:24.856Z,5.90
2023-10-20T07:25:51.107Z,6.72
2023-10-20T07:28:17.178Z,5.75
2023-10-20T07:30:43.728Z,7.35
2023-10-20T07:33:22.680Z,6.57
2023-10-20T07:35:49.914Z,4.80
2023-10-20T07:38:17.793Z,3.30
2023-10-20T07:40:43.784Z,6.88
2023-10-20T07:43:11.751Z,5.40
2023-10-20T07:45:40.984Z,4.13
2023-10-20T07:50:48.608Z,5.38
2023-10-20T07:53:14.641Z,5.57
2023-10-20T07:55:40.768Z,5.70
2023-10-20T07:58:09.645Z,4.00
2023-10-20T08:00:36.916Z,4.60
2023-10-20T08:03:09.515Z,5.80
2023-10-20T08:05:36.717Z,6.10
2023-10-20T08:08:03.224Z,6.95
2023-10-20T08:10:29.273Z,7.85
2023-10-20T08:12:55.581Z,7.60
2023-10-20T08:15:27.181Z,6.20
2023-10-20T08:17:53.497Z,6.90
2023-10-20T08:20:20.053Z,5.57
2023-10-20T08:22:46.004Z,5.90
2023-10-20T08:25:12.249Z,5.97
2023-10-20T08:27:39.115Z,7.60
2023-10-20T08:30:05.570Z,5.95
2023-10-20T08:32:31.668Z,7.95
2023-10-20T08:35:00.837Z,6.57
2023-10-20T08:37:35.768Z,7.90
2023-10-20T08:40:15.363Z,6.85
2023-10-20T08:42:41.517Z,5.13
2023-10-20T08:45:08.704Z,6.13
2023-10-20T08:47:35.110Z,6.57
2023-10-20T08:50:03.149Z,7.38
2023-10-20T08:52:35.879Z,5.45
2023-10-20T08:55:02.206Z,6.78
2023-10-20T08:57:28.542Z,7.85
2023-10-20T08:59:55.260Z,7.30
2023-10-20T09:02:21.474Z,6.53
2023-10-20T09:05:02.739Z,7.78
2023-10-20T09:07:30.485Z,7.07
2023-10-20T09:09:56.579Z,8.50
2023-10-20T09:14:49.270Z,7.63
2023-10-20T09:17:24.591Z,8.02
2023-10-20T09:19:51.280Z,5.63
2023-10-20T09:22:29.720Z,6.40
2023-10-20T09:24:56.274Z,6.82
2023-10-20T09:27:22.762Z,7.18
2023-10-20T09:29:50.403Z,7.00
2023-10-20T09:32:16.748Z,6.93
2023-10-20T09:34:46.022Z,7.20
2023-10-20T09:37:13.486Z,7.32
2023-10-20T09:39:41.469Z,6.55
2023-10-20T09:42:09.198Z,8.05
2023-10-20T09:44:39.957Z,6.90
2023-10-20T09:49:36.615Z,7.75
2023-10-20T09:52:05.811Z,6.35
2023-10-20T09:54:33.637Z,6.55
2023-10-20T09:57:01.776Z,5.75
2023-10-20T09:59:28.689Z,5.03
2023-10-20T10:01:56.472Z,5.70
2023-10-20T10:04:46.516Z,4.80
2023-10-20T10:07:16.526Z,4.90
2023-10-20T10:09:54.170Z,5.68
2023-10-20T10:12:21.728Z,4.63
2023-10-20T10:15:34.752Z,4.82
2023-10-20T10:18:08.334Z,5.40
2023-10-20T10:20:41.757Z,4.40
2023-10-20T10:23:13.554Z,4.43
2023-10-20T10:25:48.460Z,5.05
2023-10-20T10:28:22.342Z,4.68
2023-10-20T10:34:14.518Z,5.35
2023-10-20T10:36:49.497Z,4.32
2023-10-20T10:39:27.871Z,5.47
2023-10-20T10:42:02.371Z,4.95
2023-10-20T10:44:33.125Z,6.05
2023-10-20T10:46:59.419Z,6.20
2023-10-20T10:52:17.599Z,6.35
2023-10-20T10:54:46.715Z,4.22
2023-10-20T10:57:14.065Z,4.63
2023-10-20T10:59:41.639Z,4.50
2023-10-20T11:02:10.090Z,5.55
2023-10-20T11:04:42.878Z,5.88
2023-10-20T11:07:14.543Z,4.53
2023-10-20T11:17:49.255Z,4.80
2023-10-20T11:20:20.337Z,4.35
2023-10-20T11:22:56.213Z,4.50
2023-10-20T11:25:26.391Z,3.75
2023-10-20T11:28:04.798Z,4.90
2023-10-20T11:42:30.216Z,3.47
2023-10-20T11:44:56.390Z,2.60
2023-10-20T11:47:23.340Z,3.65
2023-10-20T11:49:53.549Z,4.68
2023-10-20T11:52:23.609Z,3.75
2023-10-20T11:54:49.732Z,6.50
2023-10-20T11:57:17.003Z,3.58
2023-10-20T11:59:44.449Z,3.08
2023-10-20T12:02:14.542Z,4.03
2023-10-20T12:05:02.565Z,3.05
2023-10-20T12:10:25.721Z,3.58
2023-10-20T12:42:14.487Z,1.55
2023-10-20T12:44:42.354Z,2.33
2023-10-20T12:52:44.652Z,3.80
2023-10-20T12:55:23.757Z,2.42
2023-10-20T12:57:50.419Z,3.13
2023-10-20T13:00:22.605Z,2.00
2023-10-20T13:56:27.200Z,2.33
2023-10-20T13:58:54.569Z,1.60
2023-10-20T14:04:08.253Z,1.80
2023-10-20T14:09:19.682Z,2.20
2023-10-20T14:14:28.336Z,2.25
2023-10-20T14:16:54.954Z,2.40
2023-10-20T14:19:52.599Z,2.60
2023-10-20T14:22:23.330Z,3.50
2023-10-20T14:24:50.884Z,2.55
2023-10-20T14:27:22.592Z,3.33
2023-10-20T14:29:49.661Z,2.78
2023-10-20T14:49:09.387Z,1.85
2023-10-20T14:51:38.027Z,3.13
2023-10-20T14:54:04.734Z,1.95
2023-10-20T14:56:33.842Z,2.38
2023-10-20T14:59:02.855Z,2.10
2023-10-20T15:01:30.637Z,2.05
2023-10-20T15:04:13.781Z,2.40
2023-10-20T16:06:50.943Z,2.45
2023-10-20T16:09:19.493Z,1.30
2023-10-20T16:11:47.886Z,1.27
2023-10-20T16:14:14.549Z,1.40
2023-10-20T16:16:42.580Z,1.73
2023-10-20T16:19:10.253Z,1.40
2023-10-20T16:21:36.541Z,1.95
2023-10-20T16:24:16.114Z,1.70
2023-10-20T16:26:51.907Z,1.90
2023-10-20T16:29:18.695Z,2.08
2023-10-20T16:31:47.370Z,1.42
2023-10-20T16:48:32.628Z,1.90
2023-10-20T16:51:00.865Z,2.10
2023-10-20T16:53:27.808Z,1.85
2023-10-20T16:55:59.518Z,2.15
2023-10-20T16:58:30.449Z,2.00
2023-10-20T17:03:26.893Z,2.50
2023-10-20T17:05:54.099Z,2.05
2023-10-20T17:08:24.019Z,2.00
2023-10-20T17:10:51.214Z,2.30
2023-10-20T17:16:05.558Z,1.88
2023-10-20T17:18:33.796Z,1.90
2023-10-20T17:21:05.903Z,2.08
2023-10-20T17:23:33.544Z,2.20
2023-10-20T17:26:00.211Z,2.55
2023-10-20T17:31:11.871Z,3.28
2023-10-20T17:33:44.689Z,3.10
2023-10-20T17:39:05.503Z,2.65
2023-10-20T17:41:35.269Z,3.30
2023-10-20T17:46:45.424Z,2.80
2023-10-20T17:49:15.685Z,3.72
2023-10-20T17:51:43.813Z,3.25
2023-10-20T17:54:16.191Z,3.95
2023-10-20T17:56:42.289Z,3.50
2023-10-20T17:59:08.566Z,4.90
2023-10-20T18:01:34.787Z,4.82
2023-10-20T18:04:13.963Z,4.85
2023-10-20T18:06:40.234Z,5.72
2023-10-20T18:09:08.767Z,5.38
2023-10-20T18:11:43.608Z,4.78
2023-10-20T18:14:09.817Z,5.57
2023-10-20T18:16:36.024Z,5.50
2023-10-20T18:19:05.849Z,5.13
2023-10-20T18:21:37.673Z,6.05
2023-10-20T18:24:10.321Z,6.35
2023-10-20T18:26:36.626Z,6.47
2023-10-20T18:29:04.989Z,5.60
2023-10-20T18:31:35.657Z,4.40
2023-10-20T18:34:06.650Z,4.25
2023-10-20T18:36:34.088Z,4.38
2023-10-20T18:39:00.225Z,5.75
2023-10-20T18:41:27.656Z,5.03
2023-10-20T18:43:53.543Z,5.32
2023-10-20T18:46:20.928Z,6.00
2023-10-20T18:48:48.899Z,6.72
2023-10-20T18:51:16.308Z,6.57
2023-10-20T18:53:43.163Z,6.50
2023-10-20T18:56:09.417Z,6.75
2023-10-20T18:58:35.517Z,5.93
2023-10-20T19:01:02.173Z,6.40
2023-10-20T19:03:38.257Z,6.63
2023-10-20T19:06:08.523Z,6.63
2023-10-20T19:08:35.851Z,6.45
2023-10-20T19:11:05.757Z,6.32
2023-10-20T19:13:33.873Z,6.82
2023-10-20T19:16:00.176Z,6.70
2023-10-20T19:18:26.381Z,6.97
2023-10-20T19:20:58.424Z,7.43
2023-10-20T19:23:24.585Z,8.60
2023-10-20T19:26:01.050Z,9.52
2023-10-20T19:28:27.282Z,8.77
2023-10-20T19:31:02.766Z,7.80
2023-10-20T19:36:51.343Z,8.30
2023-10-20T19:39:17.463Z,8.75
2023-10-20T19:41:43.608Z,8.02
2023-10-20T19:44:10.051Z,10.45
2023-10-20T19:46:36.715Z,10.60
2023-10-20T19:49:02.804Z,10.38
2023-10-20T19:51:29.693Z,10.00
2023-10-20T19:53:55.805Z,10.35
2023-10-20T19:56:21.883Z,12.18
2023-10-20T19:58:49.296Z,10.35
2023-10-20T20:01:15.870Z,9.95
2023-10-20T20:03:42.407Z,10.73
2023-10-20T20:06:12.732Z,9.73
2023-10-20T20:08:39.438Z,10.32
2023-10-20T20:11:05.470Z,10.55
2023-10-20T20:13:41.800Z,10.55
2023-10-20T20:16:12.671Z,10.68
2023-10-20T20:21:09.303Z,8.55
2023-10-20T20:23:36.129Z,9.25
2023-10-20T20:26:03.127Z,10.52
2023-10-20T20:28:29.016Z,10.40
2023-10-20T20:30:55.428Z,10.20
2023-10-20T20:33:22.986Z,10.57
2023-10-20T20:35:49.740Z,11.48
2023-10-20T20:38:16.184Z,11.55
2023-10-20T20:40:42.410Z,9.65
2023-10-20T20:43:08.458Z,10.02
2023-10-20T20:45:34.671Z,11.40
2023-10-20T20:48:01.650Z,11.15
2023-10-20T20:50:33.506Z,11.63
2023-10-20T20:53:01.240Z,10.70
2023-10-20T20:55:27.775Z,11.73
2023-10-20T20:57:53.689Z,13.93
2023-10-20T21:00:19.724Z,11.65
2023-10-20T21:02:52.123Z,11.75
2023-10-20T21:05:18.040Z,10.45
2023-10-20T21:07:44.504Z,11.40
2023-10-20T21:10:10.734Z,10.93
2023-10-20T21:12:38.134Z,9.90
2023-10-20T21:15:07.930Z,10.85
2023-10-20T21:17:34.758Z,10.00
2023-10-20T21:20:00.850Z,10.27
2023-10-20T21:22:27.328Z,10.88
2023-10-20T21:24:57.690Z,11.68
2023-10-20T21:27:23.868Z,9.63
2023-10-20T21:29:49.792Z,9.77
2023-10-20T21:32:15.844Z,11.20
2023-10-20T21:34:47.775Z,9.85
2023-10-20T21:37:13.693Z,9.70
2023-10-20T21:39:39.605Z,9.35
2023-10-20T21:42:06.396Z,9.52
2023-10-20T21:44:32.407Z,10.45
2023-10-20T21:46:58.232Z,11.70
2023-10-20T21:49:24.265Z,10.88
2023-10-20T21:51:50.705Z,10.13
2023-10-20T21:54:16.537Z,10.35
2023-10-20T21:56:42.423Z,11.30
2023-10-20T21:59:08.281Z,11.55
2023-10-20T22:01:34.188Z,11.63
2023-10-20T22:04:15.569Z,11.77
2023-10-20T22:06:42.012Z,10.35
2023-10-20T22:09:09.060Z,11.80
2023-10-20T22:11:35.196Z,10.70
2023-10-20T22:14:01.080Z,11.55
2023-10-20T22:16:27.236Z,11.10
2023-10-20T22:18:53.297Z,10.93
2023-10-20T22:21:19.200Z,10.30
2023-10-20T22:23:45.107Z,10.75
2023-10-20T22:26:10.953Z,11.80
2023-10-20T22:28:36.840Z,12.02
2023-10-20T22:31:02.808Z,11.80
2023-10-20T22:33:34.874Z,11.60
2023-10-20T22:36:00.924Z,10.43
2023-10-20T22:38:26.942Z,10.90
2023-10-20T22:40:52.739Z,11.77
2023-10-20T22:43:18.655Z,12.80
2023-10-20T22:45:44.535Z,12.05
2023-10-20T22:48:10.665Z,11.43
2023-10-20T22:50:36.606Z,12.18
2023-10-20T22:53:02.570Z,13.27
2023-10-20T22:55:28.394Z,12.38
2023-10-20T22:57:54.240Z,11.55
2023-10-20T23:00:20.188Z,12.48
2023-10-20T23:02:52.346Z,12.32
2023-10-20T23:05:20.243Z,13.43
2023-10-20T23:07:46.481Z,13.55
2023-10-20T23:10:12.353Z,12.40
2023-10-20T23:12:38.363Z,12.68
2023-10-20T23:15:06.763Z,13.15
2023-10-20T23:17:32.714Z,14.82
2023-10-20T23:19:58.546Z,14.05
2023-10-20T23:22:25.567Z,14.65
2023-10-20T23:24:51.612Z,12.85
2023-10-20T23:27:17.551Z,14.20
2023-10-20T23:29:43.449Z,13.27
2023-10-20T23:32:09.306Z,13.98
2023-10-20T23:34:41.523Z,13.32
2023-10-20T23:37:08.189Z,14.88
2023-10-20T23:39:35.005Z,13.65
2023-10-20T23:42:01.278Z,14.20
2023-10-20T23:44:28.112Z,14.80
2023-10-20T23:46:54.077Z,14.80
2023-10-20T23:49:19.896Z,13.85
2023-10-20T23:51:46.225Z,14.13
2023-10-20T23:54:12.145Z,15.38
2023-10-20T23:56:38.052Z,14.07
2023-10-20T23:59:03.971Z,14.75
